createdAt,value
2023-03-23T15:59:08.023Z,7.30
2023-03-23T16:01:43.710Z,6.70
2023-03-23T16:04:19.437Z,6.10
2023-03-23T16:06:59.594Z,8.70
2023-03-23T16:09:33.724Z,12.00
2023-03-23T16:12:07.946Z,9.90
2023-03-23T16:14:42.349Z,7.80
2023-03-23T16:17:23.936Z,8.90
2023-03-23T16:19:59.053Z,7.70
2023-03-23T16:22:33.041Z,10.70
2023-03-23T16:25:07.874Z,8.40
2023-03-23T16:27:43.005Z,11.00
2023-03-23T16:30:21.276Z,9.20
2023-03-23T16:32:57.676Z,8.50
2023-03-23T16:35:32.347Z,9.20
2023-03-23T16:38:07.762Z,7.20
2023-03-23T16:43:16.556Z,6.40
2023-03-23T16:45:51.154Z,8.40
2023-03-23T16:48:25.408Z,8.80
2023-03-23T16:50:59.138Z,8.80
2023-03-23T16:53:33.137Z,8.30
2023-03-23T16:56:08.156Z,9.50
2023-03-23T16:58:43.731Z,8.00
2023-03-23T17:01:17.909Z,8.30
2023-03-23T17:03:51.921Z,8.70
2023-03-23T17:06:26.521Z,9.00
2023-03-23T17:09:01.106Z,8.00
2023-03-23T17:11:35.144Z,9.70
2023-03-23T17:14:08.896Z,8.40
2023-03-23T17:16:42.807Z,8.40
2023-03-23T17:19:16.810Z,9.30
2023-03-23T17:21:52.049Z,8.90
2023-03-23T17:24:32.963Z,9.90
2023-03-23T17:27:07.556Z,9.60
2023-03-23T17:29:41.302Z,10.10
2023-03-23T17:32:14.888Z,11.40
2023-03-23T17:34:48.960Z,10.10
2023-03-23T17:37:24.392Z,13.60
2023-03-23T17:39:59.259Z,14.50
2023-03-23T17:42:33.738Z,15.20
2023-03-23T17:45:08.797Z,14.20
2023-03-23T17:47:43.109Z,14.10
2023-03-23T17:50:18.457Z,14.70
2023-03-23T17:52:53.884Z,14.00
2023-03-23T17:55:29.057Z,11.40
2023-03-23T17:58:07.523Z,13.30
2023-03-23T18:00:42.128Z,14.80
2023-03-23T18:03:16.279Z,12.90
2023-03-23T18:05:54.139Z,12.90
2023-03-23T18:08:28.580Z,13.10
2023-03-23T18:11:03.549Z,11.90
2023-03-23T18:13:40.137Z,16.20
2023-03-23T18:16:14.350Z,13.40
2023-03-23T18:18:48.907Z,15.10
2023-03-23T18:21:23.715Z,13.30
2023-03-23T18:23:59.874Z,13.70
2023-03-23T18:26:34.147Z,16.30
2023-03-23T18:29:09.137Z,17.30
2023-03-23T18:31:44.658Z,14.90
2023-03-23T18:34:18.803Z,16.20
2023-03-23T18:36:53.353Z,14.70
2023-03-23T18:39:27.065Z,16.50
2023-03-23T18:42:00.667Z,15.90
2023-03-23T18:44:37.516Z,14.90
2023-03-23T18:49:46.711Z,14.90
2023-03-23T18:52:20.425Z,16.70
2023-03-23T18:54:54.262Z,15.50
2023-03-23T18:57:28.829Z,15.40
2023-03-23T19:00:02.570Z,14.40
2023-03-23T19:02:39.798Z,17.30
2023-03-23T19:05:14.874Z,14.00
2023-03-23T19:07:48.988Z,14.80
2023-03-23T19:10:22.860Z,14.30
2023-03-23T19:12:59.008Z,13.90
2023-03-23T19:15:33.436Z,15.40
2023-03-23T19:18:08.558Z,14.70
2023-03-23T19:23:29.146Z,18.40
2023-03-23T19:26:02.994Z,17.20
2023-03-23T19:33:48.439Z,15.00
2023-03-23T19:36:24.729Z,14.00
2023-03-23T19:39:03.010Z,13.90
2023-03-23T19:41:37.516Z,15.50
2023-03-23T19:44:11.903Z,16.30
2023-03-23T19:46:49.303Z,17.30
2023-03-23T19:49:24.641Z,19.20
2023-03-23T19:52:06.336Z,21.50
2023-03-23T19:54:44.484Z,20.60
2023-03-23T19:57:19.198Z,19.30
2023-03-23T20:00:00.835Z,19.20
2023-03-23T20:02:35.173Z,18.80
2023-03-23T20:05:09.802Z,18.50
2023-03-23T20:07:48.650Z,16.30
2023-03-23T20:10:30.073Z,16.90
2023-03-23T20:13:03.926Z,14.10
2023-03-23T20:15:38.128Z,15.20
2023-03-23T20:18:15.270Z,14.10
2023-03-23T20:20:52.779Z,16.50
2023-03-23T20:23:27.549Z,15.50
2023-03-23T20:26:11.698Z,13.50
2023-03-23T20:28:47.933Z,12.50
2023-03-23T20:31:26.400Z,12.60
2023-03-23T20:34:02.639Z,12.70
2023-03-23T20:36:46.213Z,11.80
2023-03-23T20:39:23.793Z,9.80
2023-03-23T20:42:00.016Z,8.60
2023-03-23T20:44:35.353Z,10.10
2023-03-23T20:47:13.601Z,9.50
2023-03-23T20:49:53.370Z,8.90
2023-03-23T20:52:28.719Z,9.50
2023-03-23T20:55:03.946Z,8.60
2023-03-23T20:57:39.135Z,9.90
2023-03-23T21:00:16.928Z,10.70
2023-03-23T21:02:54.539Z,12.10
2023-03-23T21:05:28.618Z,10.30
2023-03-23T21:08:04.920Z,9.20
2023-03-23T21:10:40.029Z,9.50
2023-03-23T21:13:15.012Z,12.30
2023-03-23T21:15:53.086Z,12.40
2023-03-23T21:18:27.873Z,11.40
2023-03-23T21:21:02.466Z,13.20
2023-03-23T21:23:38.973Z,12.70
2023-03-23T21:26:15.247Z,11.60
2023-03-23T21:28:51.892Z,13.20
2023-03-23T21:34:00.886Z,14.40
2023-03-23T21:36:35.342Z,11.70
2023-03-23T21:39:12.081Z,10.70
2023-03-23T21:41:46.203Z,7.80
2023-03-23T21:44:20.316Z,8.80
2023-03-23T21:46:55.012Z,9.80
2023-03-23T21:49:30.506Z,8.40
2023-03-23T21:52:04.685Z,9.50
2023-03-23T21:54:38.786Z,10.60
2023-03-23T21:57:13.057Z,11.40
2023-03-23T21:59:48.389Z,12.50
2023-03-23T22:02:22.422Z,11.20
2023-03-23T22:04:58.572Z,11.80
2023-03-23T22:07:33.685Z,12.10
2023-03-23T22:10:09.210Z,9.70
2023-03-23T22:12:43.233Z,13.40
2023-03-23T22:15:21.226Z,14.40
2023-03-23T22:17:55.228Z,11.80
2023-03-23T22:20:29.936Z,12.30
2023-03-23T22:23:04.548Z,13.90
2023-03-23T22:25:39.476Z,9.40
2023-03-23T22:28:13.237Z,9.70
2023-03-23T22:30:47.436Z,9.50
2023-03-23T22:33:23.086Z,9.20
2023-03-23T22:35:57.017Z,8.50
2023-03-23T22:38:31.420Z,8.70
2023-03-23T22:41:07.524Z,10.70
2023-03-23T22:43:41.835Z,10.00
2023-03-23T22:46:15.947Z,9.60
2023-03-23T22:48:51.861Z,9.70
2023-03-23T22:51:26.241Z,9.50
2023-03-23T22:54:00.116Z,11.10
2023-03-23T22:56:34.222Z,10.10
2023-03-23T22:59:08.076Z,10.30
2023-03-23T23:01:41.988Z,10.10
2023-03-23T23:04:16.069Z,11.00
2023-03-23T23:06:50.948Z,9.50
2023-03-23T23:09:29.300Z,8.40
2023-03-23T23:12:03.368Z,9.20
2023-03-23T23:14:37.999Z,8.80
2023-03-23T23:17:14.076Z,9.40
2023-03-23T23:19:49.320Z,9.80
2023-03-23T23:22:23.489Z,9.10
2023-03-23T23:24:57.216Z,8.10
2023-03-23T23:27:30.947Z,8.50
2023-03-23T23:30:06.133Z,8.30
2023-03-23T23:32:43.237Z,9.10
2023-03-23T23:35:17.436Z,10.30
2023-03-23T23:37:51.962Z,7.90
2023-03-23T23:40:26.130Z,9.30
2023-03-23T23:42:59.918Z,7.70
2023-03-23T23:45:33.666Z,8.20
2023-03-23T23:48:07.964Z,9.00
2023-03-23T23:50:42.156Z,9.30
2023-03-23T23:53:17.035Z,9.00
2023-03-23T23:55:50.828Z,9.00
2023-03-23T23:58:24.584Z,9.90
